Burbank, CA (91501)

8:22 PM PST on January 26, 2015 (GMT -0800)
Castle Heights | Change Station
CLOSE
Current Station
Personal Weather Station
Location: Glendale, CA
Elevation: 771 ft
Nearby Weather Stations

Elev 771 ft 34.18 °N, 118.29 °W | Updated 60 seconds ago

Rain
Rain
55.9 °F
Feels Like 55.9 °F
N
0.0
Wind Variable Wind from East
Gusts 0.0 mph

Today
High -- | Low -- °F
--% Chance of Precip.
Yesterday
High -- | Low -- °F
Precip. -- in
6:54 AM 5:17 PM
Waxing Crescent, 50% visible
Pressure 30.07 in
Visibility 10.0 miles
Clouds Scattered Clouds 4400 ft
Scattered Clouds 5500 ft
Overcast 8000 ft
Dew Point 53 °F
Humidity 89%
Rainfall 0.07 in
Snow Depth Not available.
UV 0 out of 12
Pollen 7.60 out of 12
Air Quality Not available.
Flu Activity Not available.
METAR KBUR 270353Z 11005KT 10SM -RA SCT044 SCT055 OVC080 14/11 A3009 RMK AO2 RAE0254B40 SLP182 P0000 T01390111

More Conditions Fewer Conditions

Pressure 30.07 in
Visibility 10.0 miles
Clouds Scattered Clouds 4400 ft
Scattered Clouds 5500 ft
Overcast 8000 ft
Dew Point 53 °F
Humidity 89%
Rainfall 0.07 in
Snow Depth Not available.
UV 0 out of 12
Pollen 7.60 out of 12
Air Quality Not available.
Flu Activity Not available.
METAR KBUR 270353Z 11005KT 10SM -RA SCT044 SCT055 OVC080 14/11 A3009 RMK AO2 RAE0254B40 SLP182 P0000 T01390111

More Conditions Fewer Conditions

10-Day Weather Forecast

Almanac

Astronomy

Jan. 26, 2015 Rise Set
Actual Time
Civil Twilight
Nautical Twilight
Astronomical Twilight
Moon
Length of Visible Light
Length of Day
Tomorrow will be .
, % of the Moon is Illuminated

Today's Extremes

State Highs State Lows

Community

WunderPhotos

Upload Photos

1,790,525 photos uploaded!

WunderBlogs® & News

Nearby

Air Quality

  Air Quality AQ Index Pollutant
Not available.

Snow Depth

Station Depth Elevation

Earthquake Activity

City Distance Mag. Time & Date
Minimum magnitude displayed is 2.5.

Coastal Water Temperatures

Place Temperature

Nearby Weather Stations